Terminal Aerodrome Forecast
Issued by NWS New Orleans/Baton Rouge, LA

Home | Current Version | Previous Version | Text Only | Print | Product List | Glossary On
Versions: 1 2 3 4 5 6 7 8 9 10 11 12 13
000
FTUS44 KLIX 181143
TAFBTR
TAF
KBTR 181143Z 1812/1912 00000KT P6SM SKC
     FM181500 27006KT P6SM FEW150
     FM181800 29006KT P6SM VCTS SCT040CB
     FM182100 31005KT P6SM SCT150 PROB30 1821/1824 4SM -TSRA
      BKN040CB=

USA.gov is the U.S. government's official web portal to all federal, state and local government web resources and services.